createdAt,value
2023-05-25T00:01:01.930Z,874.00
2023-05-25T00:01:51.525Z,875.00
2023-05-25T00:02:50.673Z,875.00
2023-05-25T00:03:50.604Z,875.00
2023-05-25T00:04:50.494Z,874.00
2023-05-25T00:05:50.509Z,877.00
2023-05-25T00:06:50.474Z,877.00
2023-05-25T00:07:50.474Z,879.00
2023-05-25T00:08:50.465Z,879.00
2023-05-25T00:09:50.480Z,878.00
2023-05-25T00:10:50.453Z,879.00
2023-05-25T00:11:50.458Z,877.00
2023-05-25T00:12:50.437Z,876.00
2023-05-25T00:13:50.433Z,873.00
2023-05-25T00:14:50.419Z,873.00
2023-05-25T00:15:50.427Z,872.00
2023-05-25T00:16:50.472Z,875.00
2023-05-25T00:17:50.452Z,876.00
2023-05-25T00:18:50.429Z,876.00
2023-05-25T00:19:50.484Z,877.00
2023-05-25T00:20:50.494Z,880.00
2023-05-25T00:21:50.493Z,879.00
2023-05-25T00:22:50.520Z,878.00
2023-05-25T00:23:50.555Z,877.00
2023-05-25T00:24:50.564Z,878.00
2023-05-25T00:25:50.614Z,874.00
2023-05-25T00:26:50.621Z,873.00
2023-05-25T00:27:50.650Z,870.00
2023-05-25T00:28:50.679Z,868.00
2023-05-25T00:29:50.709Z,869.00
2023-05-25T00:30:50.756Z,870.00
2023-05-25T00:31:50.760Z,872.00
2023-05-25T00:32:50.845Z,873.00
2023-05-25T00:33:50.824Z,870.00
2023-05-25T00:34:50.836Z,869.00
2023-05-25T00:35:50.858Z,868.00
2023-05-25T00:36:50.902Z,868.00
2023-05-25T00:37:50.919Z,867.00
2023-05-25T00:38:50.970Z,868.00
2023-05-25T00:39:50.975Z,867.00
2023-05-25T00:40:51.003Z,865.00
2023-05-25T00:41:51.031Z,867.00
2023-05-25T00:42:51.062Z,865.00
2023-05-25T00:43:51.097Z,862.00
2023-05-25T00:44:51.121Z,861.00
2023-05-25T00:45:51.130Z,862.00
2023-05-25T00:46:51.293Z,862.00
2023-05-25T00:47:51.241Z,864.00
2023-05-25T00:48:51.212Z,864.00
2023-05-25T00:49:51.221Z,867.00
2023-05-25T00:50:51.252Z,868.00
2023-05-25T00:51:51.287Z,870.00
2023-05-25T00:52:51.314Z,869.00
2023-05-25T00:53:51.373Z,868.00
2023-05-25T00:54:51.379Z,866.00
2023-05-25T00:55:51.411Z,869.00
2023-05-25T00:56:51.451Z,868.00
2023-05-25T00:57:51.468Z,866.00
2023-05-25T00:58:51.572Z,864.00
2023-05-25T00:59:51.522Z,865.00
2023-05-25T01:00:51.578Z,866.00
2023-05-25T01:01:51.612Z,867.00
2023-05-25T01:02:51.683Z,867.00
2023-05-25T01:03:51.678Z,867.00
2023-05-25T01:04:51.680Z,867.00
2023-05-25T01:05:51.720Z,866.00
2023-05-25T01:06:51.754Z,864.00
2023-05-25T01:07:51.780Z,862.00
2023-05-25T01:08:51.817Z,861.00
2023-05-25T01:09:51.841Z,861.00
2023-05-25T01:10:51.878Z,861.00
2023-05-25T01:11:51.931Z,859.00
2023-05-25T01:12:51.928Z,861.00
2023-05-25T01:13:51.954Z,862.00
2023-05-25T01:14:52.004Z,863.00
2023-05-25T01:15:52.011Z,864.00
2023-05-25T01:16:52.099Z,862.00
2023-05-25T01:17:52.126Z,861.00
2023-05-25T01:18:52.097Z,861.00
2023-05-25T01:20:08.080Z,858.00
2023-05-25T01:20:53.184Z,859.00
2023-05-25T01:21:52.131Z,859.00
2023-05-25T01:22:52.119Z,860.00
2023-05-25T01:23:52.138Z,858.00
2023-05-25T01:24:52.105Z,857.00
2023-05-25T01:25:52.101Z,855.00
2023-05-25T01:26:52.083Z,855.00
2023-05-25T01:27:52.080Z,855.00
2023-05-25T01:28:52.085Z,857.00
2023-05-25T01:29:52.098Z,857.00
2023-05-25T01:30:52.077Z,858.00
2023-05-25T01:31:52.107Z,858.00
2023-05-25T01:32:52.084Z,858.00
2023-05-25T01:33:52.064Z,858.00
2023-05-25T01:34:52.072Z,859.00
2023-05-25T01:35:52.116Z,859.00
2023-05-25T01:36:52.145Z,858.00
2023-05-25T01:37:52.192Z,859.00
2023-05-25T01:38:52.220Z,857.00
2023-05-25T01:39:52.255Z,856.00
2023-05-25T01:40:52.265Z,858.00
2023-05-25T01:41:52.294Z,858.00
2023-05-25T01:42:52.337Z,858.00
2023-05-25T01:43:52.388Z,858.00
2023-05-25T01:44:52.413Z,857.00
2023-05-25T01:45:52.503Z,859.00
2023-05-25T01:46:52.491Z,859.00
2023-05-25T01:47:52.558Z,860.00
2023-05-25T01:48:52.575Z,858.00
2023-05-25T01:49:52.604Z,858.00
2023-05-25T01:50:52.622Z,856.00
2023-05-25T01:51:52.689Z,855.00
2023-05-25T01:52:52.720Z,854.00
2023-05-25T01:53:52.757Z,853.00
2023-05-25T01:54:52.785Z,854.00
2023-05-25T01:55:52.823Z,855.00
2023-05-25T01:56:52.877Z,855.00
2023-05-25T01:57:52.891Z,856.00
2023-05-25T01:58:52.935Z,857.00
2023-05-25T01:59:52.971Z,856.00
2023-05-25T02:00:53.005Z,857.00
2023-05-25T02:01:53.719Z,857.00
2023-05-25T02:02:53.113Z,856.00
2023-05-25T02:03:53.165Z,856.00
2023-05-25T02:04:53.133Z,856.00
2023-05-25T02:05:53.185Z,857.00
2023-05-25T02:06:53.233Z,858.00
2023-05-25T02:07:53.255Z,858.00
2023-05-25T02:08:53.281Z,858.00
2023-05-25T02:09:53.316Z,859.00
2023-05-25T02:10:53.350Z,861.00
2023-05-25T02:11:53.392Z,862.00
2023-05-25T02:12:53.425Z,862.00
2023-05-25T02:13:53.461Z,859.00
2023-05-25T02:14:53.504Z,858.00
2023-05-25T02:15:53.671Z,857.00
2023-05-25T02:16:53.570Z,857.00
2023-05-25T02:17:53.659Z,858.00
2023-05-25T02:18:53.654Z,858.00
2023-05-25T02:19:53.747Z,855.00
2023-05-25T02:20:53.704Z,855.00
2023-05-25T02:21:53.768Z,855.00
2023-05-25T02:22:53.787Z,853.00
2023-05-25T02:23:53.845Z,854.00
2023-05-25T02:24:53.867Z,853.00
2023-05-25T02:25:53.904Z,850.00
2023-05-25T02:26:53.944Z,850.00
2023-05-25T02:27:53.970Z,854.00
2023-05-25T02:28:54.024Z,852.00
2023-05-25T02:29:54.053Z,851.00
2023-05-25T02:30:54.094Z,852.00
2023-05-25T02:31:54.127Z,853.00
2023-05-25T02:32:54.234Z,852.00
2023-05-25T02:33:54.216Z,849.00
2023-05-25T02:34:54.237Z,848.00
2023-05-25T02:35:54.299Z,849.00
2023-05-25T02:36:54.319Z,849.00
2023-05-25T02:37:54.362Z,848.00
2023-05-25T02:38:54.390Z,850.00
2023-05-25T02:39:54.434Z,853.00
2023-05-25T02:40:54.475Z,855.00
2023-05-25T02:41:54.500Z,854.00
2023-05-25T02:42:54.554Z,852.00
2023-05-25T02:43:54.586Z,850.00
2023-05-25T02:44:54.606Z,848.00
2023-05-25T02:45:54.651Z,846.00
2023-05-25T02:46:54.754Z,845.00
2023-05-25T02:47:54.764Z,844.00
2023-05-25T02:48:54.759Z,841.00
2023-05-25T02:49:54.811Z,841.00
2023-05-25T02:50:54.823Z,845.00
2023-05-25T02:51:54.862Z,847.00
2023-05-25T02:52:54.897Z,845.00
2023-05-25T02:53:54.940Z,847.00
2023-05-25T02:54:54.960Z,845.00
2023-05-25T02:55:55.003Z,841.00
2023-05-25T02:56:55.029Z,841.00
2023-05-25T02:57:55.069Z,843.00
2023-05-25T02:58:55.112Z,845.00
2023-05-25T02:59:55.151Z,846.00
2023-05-25T03:00:55.211Z,846.00
2023-05-25T03:01:55.241Z,847.00
2023-05-25T03:02:55.277Z,847.00
2023-05-25T03:03:55.394Z,844.00
2023-05-25T03:04:55.356Z,841.00
2023-05-25T03:05:55.381Z,840.00
2023-05-25T03:06:55.425Z,839.00
2023-05-25T03:07:55.450Z,837.00
2023-05-25T03:08:55.502Z,840.00
2023-05-25T03:09:55.523Z,842.00
2023-05-25T03:10:55.578Z,845.00
2023-05-25T03:11:55.615Z,845.00
2023-05-25T03:12:55.657Z,841.00
2023-05-25T03:13:55.711Z,840.00
2023-05-25T03:14:55.750Z,840.00
2023-05-25T03:15:55.810Z,840.00
2023-05-25T03:16:55.921Z,840.00
2023-05-25T03:17:55.901Z,841.00
2023-05-25T03:18:55.942Z,843.00
2023-05-25T03:19:56.013Z,842.00
2023-05-25T03:20:56.027Z,842.00
2023-05-25T03:21:56.072Z,842.00
2023-05-25T03:22:56.133Z,841.00
2023-05-25T03:23:56.157Z,839.00
2023-05-25T03:24:56.183Z,839.00
2023-05-25T03:25:56.237Z,841.00
2023-05-25T03:26:56.278Z,840.00
2023-05-25T03:27:56.335Z,838.00
2023-05-25T03:28:56.365Z,836.00
2023-05-25T03:29:56.400Z,836.00
2023-05-25T03:30:56.460Z,839.00
2023-05-25T03:31:56.552Z,842.00
2023-05-25T03:32:56.569Z,841.00
2023-05-25T03:33:56.579Z,841.00
2023-05-25T03:34:56.614Z,841.00
2023-05-25T03:35:56.661Z,841.00
2023-05-25T03:36:56.705Z,842.00
2023-05-25T03:37:56.735Z,843.00
2023-05-25T03:38:56.807Z,845.00
2023-05-25T03:39:56.854Z,845.00
2023-05-25T03:40:56.881Z,849.00
2023-05-25T03:41:56.920Z,848.00
2023-05-25T03:42:56.966Z,847.00
2023-05-25T03:43:57.011Z,846.00
2023-05-25T03:44:57.063Z,842.00
2023-05-25T03:45:57.107Z,842.00
2023-05-25T03:46:57.126Z,843.00
2023-05-25T03:47:57.204Z,843.00
2023-05-25T03:48:57.230Z,844.00
2023-05-25T03:49:57.254Z,842.00
2023-05-25T03:50:57.296Z,841.00
2023-05-25T03:51:57.336Z,840.00
2023-05-25T03:52:57.418Z,840.00
2023-05-25T03:53:57.442Z,838.00
2023-05-25T03:54:57.454Z,837.00
2023-05-25T03:55:57.522Z,836.00
2023-05-25T03:56:57.552Z,836.00
2023-05-25T03:57:57.615Z,835.00
2023-05-25T03:58:57.658Z,836.00
2023-05-25T03:59:57.700Z,836.00
2023-05-25T04:00:57.740Z,835.00
2023-05-25T04:01:57.760Z,836.00
2023-05-25T04:02:57.883Z,835.00
2023-05-25T04:03:57.980Z,832.00
2023-05-25T04:04:57.892Z,832.00
2023-05-25T04:05:57.925Z,832.00
2023-05-25T04:06:57.987Z,834.00
2023-05-25T04:07:58.037Z,833.00
2023-05-25T04:08:58.090Z,831.00
2023-05-25T04:09:58.123Z,830.00
2023-05-25T04:10:58.158Z,830.00
2023-05-25T04:11:58.207Z,832.00
2023-05-25T04:12:58.245Z,834.00
2023-05-25T04:13:58.294Z,836.00
2023-05-25T04:14:58.337Z,834.00
2023-05-25T04:15:58.412Z,834.00
2023-05-25T04:16:58.417Z,835.00
2023-05-25T04:17:58.528Z,836.00
2023-05-25T04:18:58.516Z,836.00
2023-05-25T04:19:58.561Z,835.00
2023-05-25T04:20:58.631Z,835.00
2023-05-25T04:21:58.629Z,833.00
2023-05-25T04:22:58.680Z,833.00
2023-05-25T04:23:58.744Z,835.00
2023-05-25T04:24:58.769Z,836.00
2023-05-25T04:25:58.801Z,835.00
2023-05-25T04:26:58.869Z,835.00
2023-05-25T04:27:58.913Z,834.00
2023-05-25T04:28:58.961Z,834.00
2023-05-25T04:29:59.018Z,837.00
2023-05-25T04:30:59.070Z,837.00
2023-05-25T04:31:59.116Z,838.00
2023-05-25T04:32:59.126Z,838.00
2023-05-25T04:33:59.179Z,837.00
2023-05-25T04:34:59.408Z,838.00
2023-05-25T04:35:59.346Z,838.00
2023-05-25T04:36:59.308Z,840.00
2023-05-25T04:37:59.385Z,840.00
2023-05-25T04:38:59.394Z,836.00
2023-05-25T04:39:59.475Z,834.00
2023-05-25T04:40:59.458Z,831.00
2023-05-25T04:41:59.524Z,832.00
2023-05-25T04:42:59.562Z,831.00
2023-05-25T04:44:08.365Z,832.00
2023-05-25T04:45:00.594Z,831.00
2023-05-25T04:45:59.632Z,832.00
2023-05-25T04:46:59.597Z,832.00
2023-05-25T04:47:59.660Z,832.00
2023-05-25T04:48:59.593Z,833.00
2023-05-25T04:49:59.565Z,832.00
2023-05-25T04:50:59.541Z,834.00
2023-05-25T04:51:59.600Z,833.00
2023-05-25T04:52:59.596Z,833.00
2023-05-25T04:53:59.604Z,832.00
2023-05-25T04:54:59.575Z,831.00
2023-05-25T04:55:59.579Z,833.00
2023-05-25T04:56:59.580Z,834.00
2023-05-25T04:57:59.624Z,833.00
2023-05-25T04:58:59.657Z,829.00
2023-05-25T04:59:59.718Z,830.00
2023-05-25T05:00:59.802Z,831.00
2023-05-25T05:01:59.791Z,831.00
2023-05-25T05:02:59.916Z,831.00
2023-05-25T05:03:59.966Z,829.00
2023-05-25T05:04:59.911Z,827.00
2023-05-25T05:05:59.949Z,826.00
2023-05-25T05:07:00.030Z,826.00
2023-05-25T05:08:00.063Z,827.00
2023-05-25T05:09:00.064Z,827.00
2023-05-25T05:10:00.176Z,827.00
2023-05-25T05:11:00.162Z,826.00
2023-05-25T05:12:00.170Z,828.00
2023-05-25T05:13:00.296Z,831.00
2023-05-25T05:14:00.272Z,832.00
2023-05-25T05:15:00.318Z,831.00
2023-05-25T05:16:00.337Z,829.00
2023-05-25T05:17:00.401Z,827.00
2023-05-25T05:18:00.434Z,825.00
2023-05-25T05:19:00.472Z,824.00
2023-05-25T05:20:00.619Z,826.00
2023-05-25T05:21:00.565Z,830.00
2023-05-25T05:22:00.589Z,833.00
2023-05-25T05:23:00.607Z,831.00
2023-05-25T05:24:00.656Z,831.00
2023-05-25T05:25:00.695Z,830.00
2023-05-25T05:26:00.729Z,828.00
2023-05-25T05:27:02.658Z,828.00
2023-05-25T05:28:00.784Z,825.00
2023-05-25T05:29:00.740Z,824.00
2023-05-25T05:30:00.796Z,823.00
2023-05-25T05:31:00.826Z,823.00
2023-05-25T05:32:00.736Z,824.00
2023-05-25T05:33:00.855Z,823.00
2023-05-25T05:34:00.766Z,824.00
2023-05-25T05:35:00.721Z,832.00
2023-05-25T05:36:00.725Z,899.00
2023-05-25T05:37:00.715Z,912.00
2023-05-25T05:38:00.697Z,909.00
2023-05-25T05:39:00.692Z,929.00
2023-05-25T05:40:00.674Z,1031.00
2023-05-25T05:41:00.651Z,963.00
2023-05-25T05:42:00.669Z,960.00
2023-05-25T05:43:00.653Z,837.00
2023-05-25T05:44:00.788Z,803.00
2023-05-25T05:45:00.700Z,899.00
2023-05-25T05:46:00.696Z,775.00
2023-05-25T05:47:01.353Z,746.00
2023-05-25T05:48:00.679Z,682.00
2023-05-25T05:49:01.539Z,662.00
2023-05-25T05:50:00.686Z,652.00
2023-05-25T05:51:00.621Z,657.00
2023-05-25T05:52:00.620Z,722.00
2023-05-25T05:53:00.623Z,733.00
2023-05-25T05:54:00.593Z,724.00
2023-05-25T05:55:00.634Z,721.00
2023-05-25T05:56:00.586Z,753.00
2023-05-25T05:57:00.563Z,803.00
2023-05-25T05:58:00.565Z,788.00
2023-05-25T05:59:00.586Z,822.00
2023-05-25T06:00:00.594Z,834.00
2023-05-25T06:01:00.553Z,850.00
2023-05-25T06:02:00.635Z,805.00
2023-05-25T06:03:01.115Z,806.00
2023-05-25T06:04:00.560Z,804.00
2023-05-25T06:05:00.545Z,804.00
2023-05-25T06:06:00.546Z,791.00
2023-05-25T06:07:00.507Z,821.00
2023-05-25T06:08:00.519Z,848.00
2023-05-25T06:09:00.514Z,879.00
2023-05-25T06:10:00.569Z,895.00
2023-05-25T06:11:00.503Z,918.00
2023-05-25T06:12:00.492Z,975.00
2023-05-25T06:13:00.519Z,996.00
2023-05-25T06:14:00.487Z,1059.00
2023-05-25T06:15:00.486Z,1099.00
2023-05-25T06:16:00.578Z,1092.00
2023-05-25T06:17:00.742Z,1105.00
2023-05-25T06:18:00.507Z,1074.00
2023-05-25T06:19:00.574Z,1085.00
2023-05-25T06:20:00.570Z,1031.00
2023-05-25T06:21:00.471Z,1033.00
2023-05-25T06:22:00.530Z,1079.00
2023-05-25T06:23:00.559Z,1065.00
2023-05-25T06:24:00.601Z,963.00
2023-05-25T06:25:01.490Z,963.00
2023-05-25T06:26:00.653Z,755.00
2023-05-25T06:27:00.728Z,721.00
2023-05-25T06:28:00.768Z,931.00
2023-05-25T06:29:00.781Z,777.00
2023-05-25T06:30:00.828Z,798.00
2023-05-25T06:31:00.954Z,799.00
2023-05-25T06:32:00.933Z,914.00
2023-05-25T06:33:00.978Z,917.00
2023-05-25T06:34:00.924Z,929.00
2023-05-25T06:35:00.937Z,978.00
2023-05-25T06:36:00.964Z,1008.00
2023-05-25T06:37:00.961Z,1329.00
2023-05-25T06:38:00.981Z,1155.00
2023-05-25T06:39:01.556Z,1120.00
2023-05-25T06:40:01.043Z,1313.00
2023-05-25T06:41:00.975Z,953.00
2023-05-25T06:42:00.989Z,979.00
2023-05-25T06:43:00.963Z,1021.00
2023-05-25T06:44:01.016Z,1005.00
2023-05-25T06:45:00.922Z,1011.00
2023-05-25T06:46:01.038Z,1116.00
2023-05-25T06:47:00.963Z,1113.00
2023-05-25T06:48:01.047Z,1164.00
2023-05-25T06:49:00.968Z,1152.00
2023-05-25T06:50:01.028Z,1144.00
2023-05-25T06:51:00.956Z,1141.00
2023-05-25T06:52:00.941Z,1151.00
2023-05-25T06:53:00.938Z,1189.00
2023-05-25T06:54:00.947Z,1271.00
2023-05-25T06:55:00.921Z,1298.00
2023-05-25T06:56:00.979Z,1320.00
2023-05-25T06:57:00.927Z,1484.00
2023-05-25T06:58:00.992Z,1486.00
2023-05-25T06:59:00.993Z,1566.00
2023-05-25T07:00:00.966Z,1535.00
2023-05-25T07:01:01.057Z,1544.00
2023-05-25T07:02:01.076Z,1642.00
2023-05-25T07:03:01.114Z,1670.00
2023-05-25T07:04:01.503Z,1695.00
2023-05-25T07:05:01.270Z,1762.00
2023-05-25T07:06:01.279Z,1773.00
2023-05-25T07:07:01.382Z,1800.00
2023-05-25T07:08:01.382Z,1838.00
2023-05-25T07:09:01.444Z,1902.00
2023-05-25T07:10:01.482Z,1930.00
2023-05-25T07:11:01.538Z,2015.00
2023-05-25T07:12:01.596Z,2042.00
2023-05-25T07:13:01.730Z,2054.00
2023-05-25T07:14:01.671Z,2077.00
2023-05-25T07:15:01.719Z,2144.00
2023-05-25T07:16:01.787Z,2195.00
2023-05-25T07:17:01.785Z,2212.00
2023-05-25T07:18:01.874Z,2239.00
2023-05-25T07:19:01.931Z,2232.00
2023-05-25T07:20:01.993Z,2289.00
2023-05-25T07:21:01.927Z,2387.00
2023-05-25T07:22:01.975Z,2357.00
2023-05-25T07:23:01.998Z,2366.00
2023-05-25T07:24:02.050Z,2416.00
2023-05-25T07:25:02.080Z,2432.00
2023-05-25T07:26:04.980Z,2427.00
2023-05-25T07:27:02.092Z,2422.00
2023-05-25T07:28:02.097Z,2523.00
2023-05-25T07:29:02.090Z,2568.00
2023-05-25T07:30:02.133Z,2553.00
2023-05-25T07:31:02.124Z,2556.00
2023-05-25T07:32:02.061Z,2615.00
2023-05-25T07:33:02.130Z,2579.00
2023-05-25T07:34:02.502Z,2397.00
2023-05-25T07:35:02.098Z,2178.00
2023-05-25T07:36:02.109Z,1997.00
2023-05-25T07:37:02.046Z,1864.00
2023-05-25T07:38:02.066Z,1789.00
2023-05-25T07:39:02.088Z,1778.00
2023-05-25T07:40:02.035Z,1794.00
2023-05-25T07:41:02.043Z,1780.00
2023-05-25T07:42:02.089Z,1709.00
2023-05-25T07:43:02.062Z,1734.00
2023-05-25T07:44:02.020Z,1685.00
2023-05-25T07:45:02.039Z,1699.00
2023-05-25T07:46:02.003Z,1654.00
2023-05-25T07:47:02.113Z,1714.00
2023-05-25T07:48:02.034Z,1711.00
2023-05-25T07:49:02.010Z,1633.00
2023-05-25T07:50:02.045Z,1473.00
2023-05-25T07:51:02.013Z,1264.00
2023-05-25T07:52:01.946Z,1093.00
2023-05-25T07:53:02.029Z,1399.00
2023-05-25T07:54:02.049Z,1362.00
2023-05-25T07:55:01.951Z,1359.00
2023-05-25T07:56:01.913Z,1308.00
2023-05-25T07:57:01.908Z,1384.00
2023-05-25T07:58:01.879Z,1339.00
2023-05-25T07:59:01.897Z,1308.00
2023-05-25T08:00:01.863Z,1472.00
2023-05-25T08:01:01.861Z,1319.00
2023-05-25T08:02:01.874Z,1362.00
2023-05-25T08:03:02.095Z,1291.00
2023-05-25T08:04:01.948Z,1300.00
2023-05-25T08:05:02.018Z,1354.00
2023-05-25T08:06:01.836Z,1206.00
2023-05-25T08:07:01.905Z,1225.00
2023-05-25T08:08:01.939Z,1224.00
2023-05-25T08:09:01.969Z,1209.00
2023-05-25T08:10:02.012Z,1229.00
2023-05-25T08:11:01.993Z,1245.00
2023-05-25T08:12:24.088Z,1135.00
2023-05-25T08:13:03.062Z,1265.00
2023-05-25T08:14:02.507Z,1275.00
2023-05-25T08:15:02.045Z,1257.00
2023-05-25T08:16:02.005Z,1258.00
2023-05-25T08:17:02.066Z,1253.00
2023-05-25T08:18:02.012Z,1284.00
2023-05-25T08:19:02.011Z,1415.00
2023-05-25T08:20:02.040Z,1446.00
2023-05-25T08:21:01.975Z,1458.00
2023-05-25T08:22:01.954Z,1474.00
2023-05-25T08:23:01.963Z,1465.00
2023-05-25T08:24:01.951Z,1466.00
2023-05-25T08:25:01.972Z,1452.00
2023-05-25T08:26:05.929Z,1504.00
2023-05-25T08:27:02.923Z,1474.00
2023-05-25T08:28:02.022Z,1469.00
2023-05-25T08:29:01.995Z,1477.00
2023-05-25T08:30:01.966Z,1485.00
2023-05-25T08:31:01.954Z,1484.00
2023-05-25T08:32:01.949Z,1484.00
2023-05-25T08:33:02.010Z,1481.00
2023-05-25T08:34:01.919Z,1476.00
2023-05-25T08:35:01.930Z,1475.00
2023-05-25T08:36:01.911Z,1481.00
2023-05-25T08:37:01.907Z,1488.00
2023-05-25T08:38:01.991Z,1486.00
2023-05-25T08:39:01.911Z,1490.00
2023-05-25T08:40:01.926Z,1481.00
2023-05-25T08:41:02.016Z,1474.00
2023-05-25T08:42:02.070Z,1386.00
2023-05-25T08:43:02.094Z,1395.00
2023-05-25T08:44:02.516Z,1467.00
2023-05-25T08:45:02.170Z,1337.00
2023-05-25T08:46:02.282Z,1075.00
2023-05-25T08:47:02.244Z,1029.00
2023-05-25T08:48:02.438Z,1037.00
2023-05-25T08:49:02.635Z,1144.00
2023-05-25T08:50:02.313Z,1015.00
2023-05-25T08:51:02.381Z,1034.00
2023-05-25T08:52:03.085Z,1072.00
2023-05-25T08:53:02.471Z,1061.00
2023-05-25T08:54:02.524Z,995.00
2023-05-25T08:55:02.540Z,1090.00
2023-05-25T08:56:02.644Z,1010.00
2023-05-25T08:57:02.732Z,986.00
2023-05-25T08:58:02.809Z,1010.00
2023-05-25T08:59:04.868Z,1012.00
2023-05-25T09:00:02.781Z,1017.00
2023-05-25T09:01:02.822Z,932.00
2023-05-25T09:02:02.823Z,975.00
2023-05-25T09:03:02.814Z,973.00
2023-05-25T09:04:02.841Z,1007.00
2023-05-25T09:05:02.796Z,1027.00
2023-05-25T09:06:02.764Z,1035.00
2023-05-25T09:07:10.138Z,926.00
2023-05-25T09:08:03.751Z,966.00
2023-05-25T09:09:02.749Z,965.00
2023-05-25T09:10:02.747Z,975.00
2023-05-25T09:11:02.770Z,985.00
2023-05-25T09:12:02.697Z,1009.00
2023-05-25T09:13:16.677Z,1101.00
2023-05-25T09:14:03.723Z,1051.00
2023-05-25T09:15:02.712Z,1034.00
2023-05-25T09:16:02.754Z,1033.00
2023-05-25T09:17:02.658Z,1037.00
2023-05-25T09:18:02.680Z,1038.00
2023-05-25T09:19:02.723Z,1042.00
2023-05-25T09:20:02.681Z,1033.00
2023-05-25T09:21:03.113Z,1045.00
2023-05-25T09:22:14.170Z,1041.00
2023-05-25T09:23:03.616Z,1044.00
2023-05-25T09:24:02.637Z,1033.00
2023-05-25T09:25:02.652Z,1000.00
2023-05-25T09:26:02.594Z,1077.00
2023-05-25T09:27:02.640Z,1054.00
2023-05-25T09:28:17.254Z,1032.00
2023-05-25T09:29:03.604Z,1041.00
2023-05-25T09:30:02.647Z,1059.00
2023-05-25T09:31:02.582Z,990.00
2023-05-25T09:32:02.609Z,1024.00
2023-05-25T09:33:02.643Z,1035.00
2023-05-25T09:34:03.115Z,1090.00
2023-05-25T09:35:02.525Z,935.00
2023-05-25T09:36:02.589Z,1028.00
2023-05-25T09:37:02.674Z,1029.00
2023-05-25T09:38:02.918Z,919.00
2023-05-25T09:39:02.779Z,913.00
2023-05-25T09:40:02.611Z,917.00
2023-05-25T09:41:02.636Z,886.00
2023-05-25T09:42:02.684Z,828.00
2023-05-25T09:43:02.741Z,830.00
2023-05-25T09:44:11.135Z,857.00
2023-05-25T09:45:03.800Z,755.00
2023-05-25T09:46:02.831Z,763.00
2023-05-25T09:47:02.823Z,784.00
2023-05-25T09:48:02.921Z,748.00
2023-05-25T09:49:03.114Z,727.00
2023-05-25T09:50:03.059Z,725.00
2023-05-25T09:51:03.069Z,712.00
2023-05-25T09:52:03.176Z,639.00
2023-05-25T09:53:03.235Z,643.00
2023-05-25T09:54:03.610Z,651.00
2023-05-25T09:55:03.353Z,629.00
2023-05-25T09:56:04.243Z,684.00
2023-05-25T09:57:03.440Z,657.00
2023-05-25T09:58:03.505Z,621.00
2023-05-25T09:59:03.592Z,582.00
2023-05-25T10:00:03.600Z,993.00
2023-05-25T10:01:03.659Z,620.00
2023-05-25T10:02:03.748Z,568.00
2023-05-25T10:03:03.821Z,552.00
2023-05-25T10:04:05.192Z,545.00
2023-05-25T10:05:04.017Z,544.00
2023-05-25T10:06:03.951Z,543.00
2023-05-25T10:07:04.040Z,550.00
2023-05-25T10:08:04.098Z,551.00
2023-05-25T10:09:04.135Z,557.00
2023-05-25T10:10:04.167Z,543.00
2023-05-25T10:11:04.280Z,535.00
2023-05-25T10:12:04.404Z,534.00
2023-05-25T10:13:04.357Z,543.00
2023-05-25T10:14:04.458Z,552.00
2023-05-25T10:15:04.504Z,603.00
2023-05-25T10:16:04.674Z,575.00
2023-05-25T10:17:04.646Z,579.00
2023-05-25T10:18:04.708Z,593.00
2023-05-25T10:19:04.760Z,571.00
2023-05-25T10:20:04.849Z,560.00
2023-05-25T10:21:05.423Z,566.00
2023-05-25T10:22:04.904Z,505.00
2023-05-25T10:23:05.002Z,494.00
2023-05-25T10:24:05.054Z,484.00
2023-05-25T10:25:05.081Z,489.00
2023-05-25T10:26:05.152Z,493.00
2023-05-25T10:28:06.220Z,597.00
2023-05-25T10:29:05.581Z,592.00
2023-05-25T10:30:05.136Z,591.00
2023-05-25T10:31:05.215Z,614.00
2023-05-25T10:32:05.171Z,652.00
2023-05-25T10:33:05.173Z,703.00
2023-05-25T10:34:05.600Z,789.00
2023-05-25T10:35:05.115Z,789.00
2023-05-25T10:37:05.164Z,780.00
2023-05-25T10:38:05.148Z,777.00
2023-05-25T10:39:05.087Z,775.00
2023-05-25T10:40:05.174Z,775.00
2023-05-25T10:41:05.105Z,772.00
2023-05-25T10:42:05.118Z,772.00
2023-05-25T10:43:05.099Z,772.00
2023-05-25T10:44:05.065Z,771.00
2023-05-25T10:45:05.073Z,773.00
2023-05-25T10:46:05.113Z,771.00
2023-05-25T10:47:05.158Z,772.00
2023-05-25T10:48:05.128Z,771.00
2023-05-25T10:49:05.052Z,772.00
2023-05-25T10:50:05.106Z,774.00
2023-05-25T10:51:05.367Z,776.00
2023-05-25T10:52:05.033Z,778.00
2023-05-25T10:53:06.576Z,777.00
2023-05-25T10:54:05.077Z,780.00
2023-05-25T10:55:05.048Z,780.00
2023-05-25T10:56:05.017Z,782.00
2023-05-25T10:57:04.987Z,784.00
2023-05-25T10:58:04.983Z,780.00
2023-05-25T10:59:05.002Z,780.00
2023-05-25T11:00:04.950Z,779.00
2023-05-25T11:01:05.171Z,779.00
2023-05-25T11:02:06.792Z,778.00
2023-05-25T11:03:06.165Z,776.00
2023-05-25T11:04:05.196Z,776.00
2023-05-25T11:05:05.298Z,773.00
2023-05-25T11:06:05.145Z,772.00
2023-05-25T11:07:05.153Z,773.00
2023-05-25T11:08:06.396Z,776.00
2023-05-25T11:09:05.106Z,775.00
2023-05-25T11:10:05.139Z,775.00
2023-05-25T11:11:05.162Z,774.00
2023-05-25T11:12:05.135Z,772.00
2023-05-25T11:13:05.089Z,769.00
2023-05-25T11:14:05.084Z,769.00
2023-05-25T11:15:05.079Z,772.00
2023-05-25T11:16:05.116Z,772.00
2023-05-25T11:17:05.680Z,773.00
2023-05-25T11:18:05.165Z,772.00
2023-05-25T11:19:05.044Z,770.00
2023-05-25T11:20:05.088Z,766.00
2023-05-25T11:21:05.048Z,766.00
2023-05-25T11:22:07.585Z,767.00
2023-05-25T11:23:05.177Z,769.00
2023-05-25T11:24:05.620Z,771.00
2023-05-25T11:25:05.284Z,772.00
2023-05-25T11:26:05.205Z,769.00
2023-05-25T11:27:05.233Z,768.00
2023-05-25T11:28:05.243Z,766.00
2023-05-25T11:29:05.274Z,763.00
2023-05-25T11:30:05.303Z,766.00
2023-05-25T11:31:05.358Z,764.00
2023-05-25T11:32:05.362Z,765.00
2023-05-25T11:33:05.339Z,767.00
2023-05-25T11:34:05.394Z,768.00
2023-05-25T11:35:05.437Z,765.00
2023-05-25T11:36:05.581Z,763.00
2023-05-25T11:37:05.386Z,765.00
2023-05-25T11:38:05.433Z,766.00
2023-05-25T11:39:11.620Z,765.00
2023-05-25T11:40:06.609Z,768.00
2023-05-25T11:41:05.407Z,769.00
2023-05-25T11:42:05.417Z,770.00
2023-05-25T11:43:05.385Z,772.00
2023-05-25T11:44:05.604Z,774.00
2023-05-25T11:45:05.377Z,773.00
2023-05-25T11:46:05.434Z,774.00
2023-05-25T11:47:05.358Z,772.00
2023-05-25T11:48:05.414Z,772.00
2023-05-25T11:49:05.354Z,774.00
2023-05-25T11:50:05.330Z,775.00
2023-05-25T11:51:05.332Z,775.00
2023-05-25T11:52:05.319Z,774.00
2023-05-25T11:53:05.315Z,775.00
2023-05-25T11:54:05.328Z,774.00
2023-05-25T11:55:05.295Z,775.00
2023-05-25T11:56:08.286Z,776.00
2023-05-25T11:57:05.300Z,777.00
2023-05-25T11:58:05.289Z,778.00
2023-05-25T11:59:05.272Z,780.00
2023-05-25T12:00:05.286Z,781.00
2023-05-25T12:01:05.254Z,781.00
2023-05-25T12:02:05.239Z,783.00
2023-05-25T12:03:05.335Z,784.00
2023-05-25T12:04:05.341Z,783.00
2023-05-25T12:05:05.297Z,779.00
2023-05-25T12:06:05.236Z,776.00
2023-05-25T12:07:05.256Z,779.00
2023-05-25T12:08:05.202Z,778.00
2023-05-25T12:09:05.207Z,776.00
2023-05-25T12:10:05.239Z,775.00
2023-05-25T12:11:05.193Z,775.00
2023-05-25T12:12:05.207Z,776.00
2023-05-25T12:13:05.173Z,777.00
2023-05-25T12:14:05.159Z,775.00
2023-05-25T12:15:05.595Z,775.00
2023-05-25T12:16:05.167Z,773.00
2023-05-25T12:17:05.182Z,774.00
2023-05-25T12:18:05.213Z,774.00
2023-05-25T12:19:05.165Z,774.00
2023-05-25T12:20:05.222Z,776.00
2023-05-25T12:21:05.119Z,778.00
2023-05-25T12:22:05.122Z,780.00
2023-05-25T12:23:05.101Z,781.00
2023-05-25T12:24:05.100Z,780.00
2023-05-25T12:25:05.590Z,778.00